createdAt,value
2017-05-25T00:00:22.104Z,10.76
2017-05-25T00:01:32.054Z,10.77
2017-05-25T00:02:42.312Z,10.77
2017-05-25T00:03:52.582Z,10.86
2017-05-25T00:05:02.282Z,10.8
2017-05-25T00:06:12.845Z,10.82
2017-05-25T00:07:23.110Z,10.83
2017-05-25T00:08:33.375Z,10.79
2017-05-25T00:09:43.342Z,10.68
2017-05-25T00:10:53.611Z,10.76
2017-05-25T00:12:03.769Z,10.67
2017-05-25T00:13:13.724Z,10.76
2017-05-25T00:14:23.994Z,10.79
2017-05-25T00:15:34.257Z,10.62
2017-05-25T00:16:44.516Z,10.8
2017-05-25T00:17:55.031Z,10.69
2017-05-25T00:19:05.290Z,10.82
2017-05-25T00:20:15.555Z,10.77
2017-05-25T00:21:25.192Z,10.82
2017-05-25T00:22:35.138Z,10.79
2017-05-25T00:23:45.389Z,10.75
2017-05-25T00:24:55.341Z,10.77
2017-05-25T00:26:05.293Z,10.79
2017-05-25T00:27:15.553Z,10.84
2017-05-25T00:28:25.710Z,10.8
2017-05-25T00:29:35.962Z,10.82
2017-05-25T00:30:45.594Z,10.83
2017-05-25T00:31:55.866Z,10.89
2017-05-25T00:33:05.502Z,10.84
2017-05-25T00:34:15.770Z,10.83
2017-05-25T00:35:26.289Z,10.84
2017-05-25T00:36:36.556Z,10.82
2017-05-25T00:37:46.191Z,10.8
2017-05-25T00:38:56.137Z,10.89
2017-05-25T00:40:06.403Z,10.83
2017-05-25T00:41:16.651Z,10.87
2017-05-25T00:42:26.598Z,10.83
2017-05-25T00:43:36.871Z,10.92
2017-05-25T00:44:47.139Z,10.92
2017-05-25T00:45:57.406Z,10.89
2017-05-25T00:47:07.553Z,10.86
2017-05-25T00:48:17.815Z,10.89
2017-05-25T00:49:28.090Z,11
2017-05-25T00:50:38.041Z,10.94
2017-05-25T00:51:48.307Z,10.94
2017-05-25T00:53:00.822Z,10.9
2017-05-25T00:54:10.772Z,10.86
2017-05-25T00:55:21.039Z,10.83
2017-05-25T00:56:30.984Z,10.84
2017-05-25T00:57:41.251Z,10.84
2017-05-25T00:58:51.399Z,10.82
2017-05-25T01:00:01.732Z,10.82
2017-05-25T01:01:12.000Z,10.75
2017-05-25T01:02:21.952Z,10.71
2017-05-25T01:03:32.218Z,10.69
2017-05-25T01:04:42.732Z,10.65
2017-05-25T01:05:52.996Z,10.59
2017-05-25T01:07:02.632Z,10.55
2017-05-25T01:08:12.901Z,10.58
2017-05-25T01:09:23.173Z,10.49
2017-05-25T01:10:33.736Z,10.48
2017-05-25T01:11:43.999Z,10.49
2017-05-25T01:12:54.260Z,10.48
2017-05-25T01:14:04.213Z,10.39
2017-05-25T01:15:14.474Z,10.38
2017-05-25T01:16:24.775Z,10.36
2017-05-25T01:17:35.043Z,10.41
2017-05-25T01:18:45.006Z,10.42
2017-05-25T01:19:54.962Z,10.34
2017-05-25T01:21:05.238Z,10.18
2017-05-25T01:22:17.807Z,10.27
2017-05-25T01:23:27.761Z,10.24
2017-05-25T01:24:38.019Z,10.31
2017-05-25T01:25:48.285Z,10.25
2017-05-25T01:26:58.544Z,10.13
2017-05-25T01:28:08.745Z,10.1
2017-05-25T01:29:18.697Z,10.1
2017-05-25T01:30:28.671Z,10.05
2017-05-25T01:31:38.621Z,9.92
2017-05-25T01:32:48.890Z,9.91
2017-05-25T01:33:59.040Z,9.91
2017-05-25T01:35:08.990Z,9.9
2017-05-25T01:36:19.252Z,9.81
2017-05-25T01:37:29.207Z,9.81
2017-05-25T01:38:39.161Z,9.94
2017-05-25T01:39:49.363Z,9.87
2017-05-25T01:40:59.319Z,9.88
2017-05-25T01:42:09.583Z,9.87
2017-05-25T01:43:19.847Z,9.88
2017-05-25T01:44:30.112Z,9.94
2017-05-25T01:45:40.311Z,9.94
2017-05-25T01:46:50.574Z,9.85
2017-05-25T01:48:00.264Z,9.8
2017-05-25T01:49:10.524Z,9.8
2017-05-25T01:50:20.473Z,9.73
2017-05-25T01:51:30.722Z,9.62
2017-05-25T01:52:40.678Z,9.63
2017-05-25T01:53:50.951Z,9.52
2017-05-25T01:55:01.240Z,9.66
2017-05-25T01:56:11.503Z,9.49
2017-05-25T01:57:22.012Z,9.47
2017-05-25T01:58:32.276Z,9.3
2017-05-25T01:59:42.228Z,9.34
2017-05-25T02:00:52.183Z,9.29
2017-05-25T02:02:01.816Z,9.29
2017-05-25T02:03:12.074Z,9.22
2017-05-25T02:04:22.336Z,9.19
2017-05-25T02:05:32.603Z,9.13
2017-05-25T02:06:42.868Z,9.18
2017-05-25T02:07:53.142Z,9.12
2017-05-25T02:09:03.707Z,9.11
2017-05-25T02:10:13.973Z,9.08
2017-05-25T02:11:23.920Z,9
2017-05-25T02:12:34.197Z,8.99
2017-05-25T02:13:44.463Z,9.02
2017-05-25T02:14:54.981Z,9.08
2017-05-25T02:16:05.245Z,9.05
2017-05-25T02:17:15.205Z,8.99
2017-05-25T02:18:25.475Z,8.96
2017-05-25T02:19:35.431Z,9.12
2017-05-25T02:20:45.263Z,9.09
2017-05-25T02:21:55.537Z,9.02
2017-05-25T02:23:05.486Z,9.02
2017-05-25T02:24:15.753Z,9.02
2017-05-25T02:25:25.384Z,8.97
2017-05-25T02:26:35.634Z,8.89
2017-05-25T02:27:45.268Z,8.89
2017-05-25T02:28:55.209Z,8.9
2017-05-25T02:30:05.162Z,8.99
2017-05-25T02:31:15.431Z,8.84
2017-05-25T02:32:25.629Z,8.93
2017-05-25T02:33:35.912Z,8.81
2017-05-25T02:34:46.183Z,8.9
2017-05-25T02:35:56.443Z,8.86
2017-05-25T02:37:06.705Z,8.97
2017-05-25T02:38:17.268Z,9.02
2017-05-25T02:39:27.535Z,8.95
2017-05-25T02:40:37.169Z,8.97
2017-05-25T02:41:47.120Z,8.97
2017-05-25T02:42:57.384Z,8.97
2017-05-25T02:44:09.646Z,8.99
2017-05-25T02:45:19.913Z,9.05
2017-05-25T02:46:29.860Z,8.97
2017-05-25T02:47:39.807Z,9.02
2017-05-25T02:48:50.081Z,9.13
2017-05-25T02:50:00.343Z,9.08
2017-05-25T02:51:09.979Z,9.08
2017-05-25T02:52:20.258Z,9.08
2017-05-25T02:53:30.208Z,9.09
2017-05-25T02:54:40.469Z,9
2017-05-25T02:55:50.789Z,9
2017-05-25T02:57:00.739Z,9.02
2017-05-25T02:58:10.399Z,9
2017-05-25T02:59:20.665Z,8.87
2017-05-25T03:00:30.933Z,8.93
2017-05-25T03:01:41.193Z,8.9
2017-05-25T03:02:51.456Z,8.92
2017-05-25T03:04:01.715Z,8.86
2017-05-25T03:05:11.352Z,8.86
2017-05-25T03:06:21.620Z,8.86
2017-05-25T03:07:31.882Z,8.81
2017-05-25T03:08:42.157Z,8.79
2017-05-25T03:09:52.424Z,8.78
2017-05-25T03:11:02.705Z,8.77
2017-05-25T03:12:12.649Z,8.72
2017-05-25T03:13:22.598Z,8.77
2017-05-25T03:14:32.862Z,8.74
2017-05-25T03:15:43.164Z,8.75
2017-05-25T03:16:52.806Z,8.74
2017-05-25T03:18:03.070Z,8.81
2017-05-25T03:19:12.398Z,8.79
2017-05-25T03:20:22.661Z,8.79
2017-05-25T03:21:32.931Z,8.84
2017-05-25T03:22:43.194Z,8.84
2017-05-25T03:23:52.829Z,8.86
2017-05-25T03:25:02.782Z,8.89
2017-05-25T03:26:12.417Z,8.92
2017-05-25T03:27:22.687Z,8.81
2017-05-25T03:28:32.326Z,8.95
2017-05-25T03:29:42.586Z,8.81
2017-05-25T03:30:52.231Z,8.93
2017-05-25T03:32:02.178Z,8.93
2017-05-25T03:33:11.494Z,8.92
2017-05-25T03:34:21.445Z,8.89
2017-05-25T03:35:31.702Z,8.96
2017-05-25T03:36:41.959Z,8.92
2017-05-25T03:37:51.905Z,8.89
2017-05-25T03:39:02.168Z,8.9
2017-05-25T03:40:12.113Z,8.89
2017-05-25T03:41:22.056Z,8.86
2017-05-25T03:42:32.003Z,8.9
2017-05-25T03:43:42.010Z,8.87
2017-05-25T03:44:52.281Z,8.89
2017-05-25T03:46:02.224Z,8.92
2017-05-25T03:47:12.493Z,8.87
2017-05-25T03:48:22.444Z,8.95
2017-05-25T03:49:32.714Z,8.95
2017-05-25T03:50:42.975Z,8.96
2017-05-25T03:51:53.237Z,8.87
2017-05-25T03:53:03.499Z,8.97
2017-05-25T03:54:13.764Z,8.99
2017-05-25T03:55:23.719Z,8.95
2017-05-25T03:56:33.675Z,8.93
2017-05-25T03:57:43.629Z,9.02
2017-05-25T03:58:53.894Z,8.99
2017-05-25T04:00:03.858Z,8.95
2017-05-25T04:01:14.118Z,8.93
2017-05-25T04:02:23.749Z,8.86
2017-05-25T04:03:34.010Z,8.92
2017-05-25T04:04:44.286Z,8.87
2017-05-25T04:05:54.240Z,8.86
2017-05-25T04:07:04.502Z,8.87
2017-05-25T04:08:14.762Z,8.86
2017-05-25T04:09:25.028Z,8.9
2017-05-25T04:10:34.967Z,8.93
2017-05-25T04:11:44.911Z,8.87
2017-05-25T04:12:55.217Z,8.89
2017-05-25T04:14:05.475Z,8.9
2017-05-25T04:15:15.103Z,8.84
2017-05-25T04:16:25.359Z,8.93
2017-05-25T04:17:35.617Z,8.97
2017-05-25T04:18:45.876Z,8.99
2017-05-25T04:19:55.837Z,9.09
2017-05-25T04:21:06.105Z,9.05
2017-05-25T04:22:16.366Z,9.11
2017-05-25T04:23:26.634Z,9.13
2017-05-25T04:24:36.891Z,9.22
2017-05-25T04:25:47.160Z,9.36
2017-05-25T04:26:57.421Z,9.39
2017-05-25T04:28:07.683Z,9.36
2017-05-25T04:29:17.951Z,9.37
2017-05-25T04:30:27.902Z,9.4
2017-05-25T04:31:38.166Z,9.52
2017-05-25T04:32:48.432Z,9.51
2017-05-25T04:33:58.700Z,9.48
2017-05-25T04:35:08.331Z,9.62
2017-05-25T04:36:17.670Z,9.58
2017-05-25T04:37:27.936Z,9.56
2017-05-25T04:38:38.205Z,9.54
2017-05-25T04:39:48.158Z,9.63
2017-05-25T04:40:58.125Z,9.67
2017-05-25T04:42:08.385Z,9.62
2017-05-25T04:43:18.335Z,9.66
2017-05-25T04:44:28.288Z,9.63
2017-05-25T04:45:37.919Z,9.66
2017-05-25T04:46:48.185Z,9.62
2017-05-25T04:47:58.136Z,9.66
2017-05-25T04:49:08.403Z,9.62
2017-05-25T04:50:18.354Z,9.64
2017-05-25T04:51:28.616Z,9.69
2017-05-25T04:52:38.927Z,9.67
2017-05-25T04:53:49.189Z,9.74
2017-05-25T04:54:59.134Z,9.8
2017-05-25T04:56:09.401Z,9.69
2017-05-25T04:57:19.670Z,9.74
2017-05-25T04:58:32.648Z,9.81
2017-05-25T04:59:42.909Z,9.81
2017-05-25T05:00:53.189Z,9.82
2017-05-25T05:02:02.820Z,9.94
2017-05-25T05:03:12.456Z,10.02
2017-05-25T05:04:22.721Z,10.05
2017-05-25T05:05:32.354Z,10.17
2017-05-25T05:06:42.618Z,10.1
2017-05-25T05:07:52.880Z,10.2
2017-05-25T05:09:02.834Z,10.3
2017-05-25T05:10:12.774Z,10.38
2017-05-25T05:11:23.036Z,10.38
2017-05-25T05:12:33.295Z,10.39
2017-05-25T05:13:42.930Z,10.43
2017-05-25T05:14:53.189Z,10.57
2017-05-25T05:16:02.830Z,10.59
2017-05-25T05:17:12.776Z,10.61
2017-05-25T05:18:22.409Z,10.68
2017-05-25T05:19:32.677Z,10.68
2017-05-25T05:20:42.629Z,10.72
2017-05-25T05:21:52.892Z,10.79
2017-05-25T05:23:02.840Z,10.86
2017-05-25T05:24:12.783Z,10.9
2017-05-25T05:25:23.046Z,10.92
2017-05-25T05:26:33.309Z,11.04
2017-05-25T05:27:43.573Z,11.07
2017-05-25T05:28:53.839Z,11.12
2017-05-25T05:30:03.483Z,11.27
2017-05-25T05:31:13.744Z,11.37
2017-05-25T05:32:24.003Z,11.43
2017-05-25T05:33:34.268Z,11.49
2017-05-25T05:34:44.224Z,11.56
2017-05-25T05:35:54.481Z,11.56
2017-05-25T05:37:04.739Z,11.6
2017-05-25T05:38:14.687Z,11.71
2017-05-25T05:39:24.948Z,11.86
2017-05-25T05:40:35.212Z,11.89
2017-05-25T05:41:45.475Z,11.97
2017-05-25T05:42:55.736Z,12.1
2017-05-25T05:44:05.371Z,12.18
2017-05-25T05:45:14.699Z,12.28
2017-05-25T05:46:24.965Z,12.4
2017-05-25T05:47:35.225Z,12.44
2017-05-25T05:48:45.177Z,12.44
2017-05-25T05:49:55.442Z,12.48
2017-05-25T05:51:05.712Z,12.51
2017-05-25T05:52:15.990Z,12.57
2017-05-25T05:53:26.261Z,12.63
2017-05-25T05:54:36.212Z,12.83
2017-05-25T05:55:46.161Z,12.91
2017-05-25T05:56:56.421Z,12.98
2017-05-25T05:58:06.688Z,13.03
2017-05-25T05:59:16.640Z,13.16
2017-05-25T06:00:25.961Z,13.17
2017-05-25T06:01:35.911Z,13.26
2017-05-25T06:02:46.178Z,13.26
2017-05-25T06:03:56.440Z,13.28
2017-05-25T06:05:06.083Z,13.31
2017-05-25T06:06:15.718Z,13.42
2017-05-25T06:07:25.996Z,13.52
2017-05-25T06:08:35.950Z,13.65
2017-05-25T06:09:45.917Z,13.67
2017-05-25T06:10:56.187Z,13.8
2017-05-25T06:12:06.150Z,13.76
2017-05-25T06:13:16.105Z,13.86
2017-05-25T06:14:26.058Z,13.85
2017-05-25T06:15:35.702Z,13.98
2017-05-25T06:16:45.971Z,14.13
2017-05-25T06:17:55.918Z,14.08
2017-05-25T06:19:05.864Z,14.08
2017-05-25T06:20:15.818Z,14.23
2017-05-25T06:21:25.772Z,14.31
2017-05-25T06:22:35.726Z,14.25
2017-05-25T06:23:45.674Z,14.4
2017-05-25T06:24:55.937Z,14.34
2017-05-25T06:26:06.203Z,14.45
2017-05-25T06:27:16.155Z,14.38
2017-05-25T06:28:26.110Z,14.52
2017-05-25T06:29:36.377Z,14.56
2017-05-25T06:30:45.704Z,14.55
2017-05-25T06:31:55.665Z,14.55
2017-05-25T06:33:05.927Z,14.41
2017-05-25T06:34:16.201Z,14.37
2017-05-25T06:35:26.468Z,14.48
2017-05-25T06:36:36.732Z,14.44
2017-05-25T06:37:47.006Z,14.37
2017-05-25T06:38:57.275Z,14.28
2017-05-25T06:40:07.535Z,14.23
2017-05-25T06:41:17.175Z,14.28
2017-05-25T06:42:27.442Z,14.33
2017-05-25T06:43:37.711Z,14.37
2017-05-25T06:44:47.986Z,14.34
2017-05-25T06:45:57.953Z,14.44
2017-05-25T06:47:07.901Z,14.48
2017-05-25T06:48:17.540Z,14.41
2017-05-25T06:49:27.814Z,14.51
2017-05-25T06:50:37.768Z,14.66
2017-05-25T06:51:47.731Z,14.63
2017-05-25T06:52:58.007Z,14.7
2017-05-25T06:54:07.643Z,14.77
2017-05-25T06:55:17.602Z,14.44
2017-05-25T06:56:27.880Z,14.51
2017-05-25T06:57:37.836Z,14.63
2017-05-25T06:58:48.103Z,14.55
2017-05-25T06:59:58.368Z,14.59
2017-05-25T07:01:13.670Z,14.56
2017-05-25T07:02:23.627Z,14.62
2017-05-25T07:03:33.895Z,14.38
2017-05-25T07:04:44.165Z,14.18
2017-05-25T07:05:54.437Z,13.85
2017-05-25T07:07:04.706Z,13.82
2017-05-25T07:08:14.346Z,13.65
2017-05-25T07:09:23.989Z,13.54
2017-05-25T07:10:34.253Z,13.5
2017-05-25T07:11:44.521Z,13.5
2017-05-25T07:12:54.793Z,13.61
2017-05-25T07:14:05.060Z,13.78
2017-05-25T07:15:15.010Z,13.93
2017-05-25T07:16:25.278Z,13.87
2017-05-25T07:17:35.239Z,13.95
2017-05-25T07:18:45.506Z,14.11
2017-05-25T07:19:55.776Z,14.13
2017-05-25T07:21:06.049Z,14.16
2017-05-25T07:22:16.385Z,14.25
2017-05-25T07:23:26.337Z,14.26
2017-05-25T07:24:36.611Z,14.31
2017-05-25T07:25:46.569Z,14.36
2017-05-25T07:26:56.833Z,14.38
2017-05-25T07:28:06.786Z,14.44
2017-05-25T07:29:16.743Z,14.37
2017-05-25T07:30:27.020Z,14.13
2017-05-25T07:31:37.288Z,14.08
2017-05-25T07:32:47.243Z,14.12
2017-05-25T07:33:57.517Z,14.11
2017-05-25T07:35:07.471Z,14.26
2017-05-25T07:36:17.741Z,14.37
2017-05-25T07:37:27.693Z,14.55
2017-05-25T07:38:37.641Z,14.58
2017-05-25T07:39:47.612Z,14.63
2017-05-25T07:40:57.563Z,14.63
2017-05-25T07:42:07.511Z,14.7
2017-05-25T07:43:17.788Z,14.78
2017-05-25T07:44:28.066Z,14.86
2017-05-25T07:45:38.347Z,14.89
2017-05-25T07:46:48.667Z,14.92
2017-05-25T07:47:58.932Z,14.94
2017-05-25T07:49:09.206Z,14.93
2017-05-25T07:50:19.162Z,14.94
2017-05-25T07:51:29.433Z,14.86
2017-05-25T07:52:39.387Z,14.99
2017-05-25T07:53:49.660Z,14.94
2017-05-25T07:54:59.619Z,15.11
2017-05-25T07:56:09.893Z,15.14
2017-05-25T07:57:20.166Z,15.33
2017-05-25T07:58:30.124Z,15.47
2017-05-25T07:59:39.775Z,15.6
2017-05-25T08:00:50.049Z,15.72
2017-05-25T08:02:00.331Z,15.73
2017-05-25T08:03:09.971Z,15.7
2017-05-25T08:04:19.932Z,15.78
2017-05-25T08:05:29.900Z,15.81
2017-05-25T08:06:39.852Z,15.88
2017-05-25T08:07:49.816Z,15.96
2017-05-25T08:08:59.772Z,15.98
2017-05-25T08:10:09.409Z,15.84
2017-05-25T08:11:19.363Z,15.72
2017-05-25T08:12:29.321Z,15.63
2017-05-25T08:13:39.281Z,15.78
2017-05-25T08:14:49.265Z,15.9
2017-05-25T08:15:59.539Z,15.96
2017-05-25T08:17:09.809Z,16.13
2017-05-25T08:18:20.080Z,16.12
2017-05-25T08:19:29.730Z,16.21
2017-05-25T08:20:39.687Z,16.32
2017-05-25T08:21:49.954Z,16.39
2017-05-25T08:23:00.224Z,16.51
2017-05-25T08:24:10.183Z,16.5
2017-05-25T08:25:19.827Z,16.36
2017-05-25T08:26:30.094Z,16.31
2017-05-25T08:27:40.362Z,16.21
2017-05-25T08:28:50.626Z,16.39
2017-05-25T08:30:00.916Z,16.47
2017-05-25T08:31:11.185Z,16.58
2017-05-25T08:32:21.513Z,16.47
2017-05-25T08:33:31.801Z,16.5
2017-05-25T08:34:42.071Z,16.5
2017-05-25T08:35:52.337Z,16.37
2017-05-25T08:37:02.613Z,15.92
2017-05-25T08:38:12.570Z,15.65
2017-05-25T08:39:22.848Z,15.6
2017-05-25T08:40:32.810Z,15.78
2017-05-25T08:41:43.078Z,15.88
2017-05-25T08:42:53.353Z,15.92
2017-05-25T08:44:03.627Z,16.21
2017-05-25T08:45:13.586Z,16.17
2017-05-25T08:46:23.548Z,16.25
2017-05-25T08:47:33.811Z,16.31
2017-05-25T08:48:43.771Z,16.37
2017-05-25T08:49:54.047Z,16.46
2017-05-25T08:51:04.318Z,16.22
2017-05-25T08:52:14.294Z,16.17
2017-05-25T08:53:24.569Z,16.25
2017-05-25T08:54:34.846Z,16.47
2017-05-25T08:55:44.801Z,16.55
2017-05-25T08:56:55.068Z,16.64
2017-05-25T08:58:05.342Z,16.69
2017-05-25T08:59:15.623Z,16.92
2017-05-25T09:00:25.894Z,16.72
2017-05-25T09:01:35.854Z,16.62
2017-05-25T09:02:46.124Z,16.64
2017-05-25T09:03:56.080Z,16.83
2017-05-25T09:05:06.054Z,16.87
2017-05-25T09:06:16.011Z,16.74
2017-05-25T09:07:26.286Z,16.65
2017-05-25T09:08:36.252Z,16.73
2017-05-25T09:09:46.210Z,16.84
2017-05-25T09:10:55.857Z,17.01
2017-05-25T09:12:05.816Z,17.01
2017-05-25T09:13:16.096Z,17.01
2017-05-25T09:14:25.435Z,17.05
2017-05-25T09:15:35.706Z,17.09
2017-05-25T09:16:45.970Z,17.02
2017-05-25T09:17:56.241Z,17.1
2017-05-25T09:19:06.200Z,17.12
2017-05-25T09:20:16.469Z,16.82
2017-05-25T09:21:26.740Z,16.61
2017-05-25T09:22:36.695Z,16.68
2017-05-25T09:23:46.967Z,16.5
2017-05-25T09:24:56.926Z,16.68
2017-05-25T09:26:06.568Z,16.87
2017-05-25T09:27:16.852Z,16.99
2017-05-25T09:28:26.809Z,17.31
2017-05-25T09:29:36.775Z,17.44
2017-05-25T09:30:47.045Z,17.66
2017-05-25T09:31:57.316Z,17.84
2017-05-25T09:33:07.589Z,18.09
2017-05-25T09:34:17.551Z,18.33
2017-05-25T09:35:27.197Z,18.31
2017-05-25T09:36:37.484Z,18.39
2017-05-25T09:37:47.753Z,18
2017-05-25T09:38:58.026Z,18.05
2017-05-25T09:40:07.990Z,17.6
2017-05-25T09:41:17.952Z,17.56
2017-05-25T09:42:28.229Z,17.73
2017-05-25T09:43:38.501Z,17.95
2017-05-25T09:44:48.467Z,18.15
2017-05-25T09:45:58.741Z,18.12
2017-05-25T09:47:08.695Z,18.3
2017-05-25T09:48:18.661Z,18.53
2017-05-25T09:49:28.303Z,18.31
2017-05-25T09:50:38.578Z,18.46
2017-05-25T09:51:48.549Z,18.6
2017-05-25T09:52:58.830Z,18.73
2017-05-25T09:54:09.104Z,18.68
2017-05-25T09:55:19.380Z,18.6
2017-05-25T09:56:29.026Z,18.83
2017-05-25T09:57:39.318Z,18.88
2017-05-25T09:58:49.602Z,18.96
2017-05-25T09:59:59.876Z,19.15
2017-05-25T10:01:09.527Z,19
2017-05-25T10:02:19.542Z,19.11
2017-05-25T10:03:29.815Z,19.22
2017-05-25T10:04:39.780Z,19.45
2017-05-25T10:05:50.069Z,19.49
2017-05-25T10:07:00.345Z,19.78
2017-05-25T10:08:10.310Z,19.97
2017-05-25T10:09:20.264Z,19.82
2017-05-25T10:10:30.225Z,19.57
2017-05-25T10:11:40.500Z,19
2017-05-25T10:12:50.143Z,18.58
2017-05-25T10:14:00.420Z,18.06
2017-05-25T10:15:10.066Z,18.28
2017-05-25T10:16:20.333Z,18.49
2017-05-25T10:17:30.601Z,18.49
2017-05-25T10:18:40.877Z,18.49
2017-05-25T10:19:50.840Z,18.66
2017-05-25T10:21:00.803Z,18.82
2017-05-25T10:22:11.073Z,19
2017-05-25T10:23:20.730Z,19.15
2017-05-25T10:24:31.020Z,19.29
2017-05-25T10:25:41.298Z,19.42
2017-05-25T10:26:51.573Z,19.71
2017-05-25T10:28:01.537Z,19.75
2017-05-25T10:29:11.811Z,19.97
2017-05-25T10:30:21.139Z,20.19
2017-05-25T10:31:31.412Z,20.34
2017-05-25T10:32:41.694Z,20.48
2017-05-25T10:33:51.970Z,20.56
2017-05-25T10:35:02.249Z,20.73
2017-05-25T10:36:12.203Z,20.74
2017-05-25T10:37:22.479Z,20.71
2017-05-25T10:38:32.442Z,20.73
2017-05-25T10:39:42.718Z,20.73
2017-05-25T10:40:52.996Z,20.66
2017-05-25T10:42:02.961Z,20.63
2017-05-25T10:43:12.608Z,20.63
2017-05-25T10:44:22.575Z,20.66
2017-05-25T10:45:32.848Z,20.4
2017-05-25T10:46:42.810Z,20.48
2017-05-25T10:47:53.090Z,20.44
2017-05-25T10:49:03.377Z,20.4
2017-05-25T10:50:13.651Z,20.4
2017-05-25T10:51:22.667Z,20.42
2017-05-25T10:52:32.681Z,20.4
2017-05-25T10:53:42.643Z,20.48
2017-05-25T10:54:52.604Z,20.42
2017-05-25T10:56:02.559Z,20.4
2017-05-25T10:57:12.516Z,20.42
2017-05-25T10:58:22.801Z,20.4
2017-05-25T10:59:33.078Z,20.44
2017-05-25T11:00:43.351Z,20.3
2017-05-25T11:01:53.306Z,20.27
2017-05-25T11:03:02.645Z,20.26
2017-05-25T11:04:12.922Z,20.22
2017-05-25T11:05:22.884Z,20.26
2017-05-25T11:06:32.835Z,20.18
2017-05-25T11:07:43.105Z,19.94
2017-05-25T11:08:53.382Z,20.03
2017-05-25T11:10:03.654Z,19.89
2017-05-25T11:11:13.611Z,19.81
2017-05-25T11:12:23.262Z,19.82
2017-05-25T11:13:33.217Z,19.7
2017-05-25T11:14:43.174Z,19.72
2017-05-25T11:15:53.454Z,19.66
2017-05-25T11:17:03.413Z,19.66
2017-05-25T11:18:13.687Z,19.63
2017-05-25T11:19:23.639Z,19.71
2017-05-25T11:20:33.286Z,19.7
2017-05-25T11:21:43.558Z,19.67
2017-05-25T11:22:53.831Z,19.64
2017-05-25T11:24:03.469Z,19.71
2017-05-25T11:25:13.426Z,19.7
2017-05-25T11:26:23.377Z,19.82
2017-05-25T11:27:33.650Z,19.94
2017-05-25T11:28:43.932Z,20.4
2017-05-25T11:29:53.888Z,20.63
2017-05-25T11:31:03.869Z,21.08
2017-05-25T11:32:13.824Z,21.32
2017-05-25T11:33:23.152Z,21.68
2017-05-25T11:34:33.423Z,21.81
2017-05-25T11:35:43.698Z,22.21
2017-05-25T11:36:53.971Z,22.52
2017-05-25T11:38:04.264Z,22.96
2017-05-25T11:39:14.222Z,23.42
2017-05-25T11:40:24.189Z,23.77
2017-05-25T11:41:34.147Z,24
2017-05-25T11:42:44.422Z,24.4
2017-05-25T11:43:54.070Z,24.62
2017-05-25T11:45:04.030Z,24.99
2017-05-25T11:46:13.998Z,25.34
2017-05-25T11:47:23.967Z,25.68
2017-05-25T11:48:34.255Z,26.03
2017-05-25T11:49:44.541Z,26.33
2017-05-25T11:50:54.827Z,26.56
2017-05-25T11:52:05.114Z,26.93
2017-05-25T11:53:15.093Z,27.15
2017-05-25T11:54:25.060Z,27.35
2017-05-25T11:55:34.712Z,27.78
2017-05-25T11:56:44.363Z,28.08
2017-05-25T11:57:54.643Z,28.33
2017-05-25T11:59:04.926Z,28.52
2017-05-25T12:00:14.888Z,28.55
2017-05-25T12:01:24.854Z,28.6
2017-05-25T12:02:34.514Z,28.93
2017-05-25T12:03:44.182Z,28.97
2017-05-25T12:04:54.459Z,29.1
2017-05-25T12:06:04.434Z,29.21
2017-05-25T12:07:14.717Z,29.32
2017-05-25T12:08:24.686Z,29.28
2017-05-25T12:09:34.654Z,29.39
2017-05-25T12:10:44.304Z,29.61
2017-05-25T12:11:54.584Z,29.64
2017-05-25T12:13:04.868Z,29.74
2017-05-25T12:14:14.836Z,29.58
2017-05-25T12:15:25.127Z,29.35
2017-05-25T12:16:35.409Z,29.22
2017-05-25T12:17:45.379Z,28.86
2017-05-25T12:18:55.678Z,28.55
2017-05-25T12:20:05.645Z,28.46
2017-05-25T12:21:15.623Z,28.68
2017-05-25T12:22:25.906Z,28.64
2017-05-25T12:23:35.561Z,28.93
2017-05-25T12:24:45.848Z,28.93
2017-05-25T12:25:55.817Z,29.03
2017-05-25T12:27:06.097Z,29
2017-05-25T12:28:16.061Z,29.25
2017-05-25T12:29:26.034Z,29.34
2017-05-25T12:30:36.318Z,29.61
2017-05-25T12:31:45.972Z,29.76
2017-05-25T12:32:56.258Z,29.84
2017-05-25T12:34:06.549Z,30.2
2017-05-25T12:35:16.518Z,30.24
2017-05-25T12:36:26.175Z,30.35
2017-05-25T12:37:36.464Z,30.4
2017-05-25T12:38:46.752Z,30.73
2017-05-25T12:39:57.051Z,30.86
2017-05-25T12:41:07.337Z,31.26
2017-05-25T12:42:17.316Z,31.36
2017-05-25T12:43:27.603Z,31.52
2017-05-25T12:44:37.897Z,31.79
2017-05-25T12:45:48.184Z,32.04
2017-05-25T12:46:58.168Z,32.3
2017-05-25T12:48:07.829Z,32.82
2017-05-25T12:49:17.816Z,33.01
2017-05-25T12:50:28.112Z,33.05
2017-05-25T12:51:37.775Z,33.16
2017-05-25T12:52:48.064Z,33.61
2017-05-25T12:53:58.045Z,33.87
2017-05-25T12:55:07.707Z,34.25
2017-05-25T12:56:17.992Z,34.21
2017-05-25T12:57:27.650Z,34.41
2017-05-25T12:58:37.622Z,34.6
2017-05-25T12:59:47.907Z,34.71
2017-05-25T13:00:57.566Z,34.65
2017-05-25T13:02:07.541Z,34.83
2017-05-25T13:03:17.513Z,35.01
2017-05-25T13:04:27.177Z,35.05
2017-05-25T13:05:36.833Z,35.13
2017-05-25T13:06:47.122Z,35.27
2017-05-25T13:07:57.407Z,35.45
2017-05-25T13:09:07.702Z,35.18
2017-05-25T13:10:17.675Z,35.13
2017-05-25T13:11:27.959Z,35.05
2017-05-25T13:12:38.244Z,35.19
2017-05-25T13:13:47.903Z,35.01
2017-05-25T13:14:58.188Z,34.56
2017-05-25T13:16:08.488Z,34.59
2017-05-25T13:17:18.458Z,34.85
2017-05-25T13:18:28.753Z,35.13
2017-05-25T13:19:39.053Z,35.26
2017-05-25T13:20:49.341Z,35.54
2017-05-25T13:21:59.632Z,35.66
2017-05-25T13:23:09.607Z,35.86
2017-05-25T13:24:19.947Z,35.97
2017-05-25T13:25:29.924Z,35.87
2017-05-25T13:26:39.580Z,35.74
2017-05-25T13:27:49.551Z,35.94
2017-05-25T13:28:59.527Z,36.08
2017-05-25T13:30:09.505Z,36.39
2017-05-25T13:31:19.796Z,36.63
2017-05-25T13:32:30.081Z,36.75
2017-05-25T13:33:40.063Z,36.82
2017-05-25T13:34:49.730Z,36.94
2017-05-25T13:36:00.017Z,36.57
2017-05-25T13:37:09.989Z,36.13
2017-05-25T13:38:20.274Z,36.18
2017-05-25T13:39:29.940Z,36.24
2017-05-25T13:40:39.602Z,36.53
2017-05-25T13:41:49.573Z,36.43
2017-05-25T13:42:59.861Z,36.35
2017-05-25T13:44:09.837Z,36.44
2017-05-25T13:45:19.822Z,36.41
2017-05-25T13:46:30.112Z,36.54
2017-05-25T13:47:40.089Z,36.48
2017-05-25T13:48:50.378Z,36.54
2017-05-25T13:50:00.048Z,36.32
2017-05-25T13:51:10.022Z,36.41
2017-05-25T13:52:20.309Z,36.13
2017-05-25T13:53:30.293Z,36.06
2017-05-25T13:54:40.585Z,36.08
2017-05-25T13:55:50.561Z,35.87
2017-05-25T13:57:00.542Z,35.82
2017-05-25T13:58:10.512Z,35.69
2017-05-25T13:59:20.176Z,35.49
2017-05-25T14:00:30.466Z,35.53
2017-05-25T14:01:40.753Z,35.47
2017-05-25T14:02:50.414Z,35.35
2017-05-25T14:04:00.392Z,35.49
2017-05-25T14:05:10.362Z,35.39
2017-05-25T14:06:20.648Z,34.98
2017-05-25T14:07:30.311Z,34.86
2017-05-25T14:08:40.609Z,35.07
2017-05-25T14:09:50.899Z,35.15
2017-05-25T14:11:01.180Z,35.15
2017-05-25T14:12:10.840Z,34.86
2017-05-25T14:13:21.131Z,34.65
2017-05-25T14:14:31.414Z,34.55
2017-05-25T14:15:41.697Z,34.26
2017-05-25T14:16:51.984Z,33.84
2017-05-25T14:18:02.273Z,33.66
2017-05-25T14:19:11.936Z,33.47
2017-05-25T14:20:21.901Z,33.16
2017-05-25T14:21:32.186Z,32.93
2017-05-25T14:22:42.159Z,32.61
2017-05-25T14:23:51.819Z,32.44
2017-05-25T14:25:02.107Z,32.17
2017-05-25T14:26:12.389Z,31.95
2017-05-25T14:27:22.357Z,31.72
2017-05-25T14:28:32.328Z,31.37
2017-05-25T14:29:42.606Z,31.1
2017-05-25T14:30:52.575Z,30.93
2017-05-25T14:32:02.856Z,30.71
2017-05-25T14:33:12.833Z,30.49
2017-05-25T14:34:22.486Z,30.27
2017-05-25T14:35:32.834Z,30.17
2017-05-25T14:36:42.803Z,30.08
2017-05-25T14:37:52.776Z,30.2
2017-05-25T14:39:03.063Z,30.13
2017-05-25T14:40:12.722Z,29.92
2017-05-25T14:41:22.367Z,29.74
2017-05-25T14:42:32.331Z,29.46
2017-05-25T14:43:42.299Z,29.2
2017-05-25T14:44:52.264Z,29
2017-05-25T14:46:02.541Z,28.6
2017-05-25T14:47:12.834Z,28.37
2017-05-25T14:48:23.122Z,28.19
2017-05-25T14:49:32.783Z,27.97
2017-05-25T14:50:42.758Z,27.76
2017-05-25T14:51:53.051Z,27.55
2017-05-25T14:53:03.337Z,27.22
2017-05-25T14:54:13.624Z,27.05
2017-05-25T14:55:23.915Z,26.92
2017-05-25T14:56:33.881Z,26.7
2017-05-25T14:57:43.859Z,26.56
2017-05-25T14:58:54.136Z,26.45
2017-05-25T15:00:03.790Z,26.24
2017-05-25T15:01:13.759Z,26.11
2017-05-25T15:02:23.722Z,25.89
2017-05-25T15:03:34.007Z,25.85
2017-05-25T15:04:44.283Z,25.77
2017-05-25T15:05:54.249Z,25.76
2017-05-25T15:07:04.525Z,25.61
2017-05-25T15:08:14.170Z,25.49
2017-05-25T15:09:24.458Z,25.41
2017-05-25T15:10:34.416Z,25.18
2017-05-25T15:11:44.063Z,25.12
2017-05-25T15:12:53.717Z,25
2017-05-25T15:14:03.683Z,24.99